sensor_id;sensor_type;location;lat;lon;timestamp;P1;durP1;ratioP1;P2;durP2;ratioP2
50102;SDS011;35993;52.604;10.078;2022-12-07T00:03:42;28.97;;;12.27;;
50102;SDS011;35993;52.604;10.078;2022-12-07T00:06:09;22.33;;;9.87;;
50102;SDS011;35993;52.604;10.078;2022-12-07T00:08:36;21.23;;;9.70;;
50102;SDS011;35993;52.604;10.078;2022-12-07T00:11:03;21.37;;;10.07;;
50102;SDS011;35993;52.604;10.078;2022-12-07T00:13:31;22.70;;;10.30;;
50102;SDS011;35993;52.604;10.078;2022-12-07T00:16:16;19.17;;;9.77;;
50102;SDS011;35993;52.604;10.078;2022-12-07T00:18:44;18.83;;;9.23;;
50102;SDS011;35993;52.604;10.078;2022-12-07T00:21:12;18.90;;;10.17;;
50102;SDS011;35993;52.604;10.078;2022-12-07T00:23:39;20.53;;;9.60;;
50102;SDS011;35993;52.604;10.078;2022-12-07T00:26:07;20.93;;;9.67;;
50102;SDS011;35993;52.604;10.078;2022-12-07T00:28:37;21.93;;;10.67;;
50102;SDS011;35993;52.604;10.078;2022-12-07T00:31:04;22.37;;;10.03;;
50102;SDS011;35993;52.604;10.078;2022-12-07T00:33:34;20.00;;;9.30;;
50102;SDS011;35993;52.604;10.078;2022-12-07T00:36:01;20.50;;;10.10;;
50102;SDS011;35993;52.604;10.078;2022-12-07T00:38:31;22.03;;;9.83;;
50102;SDS011;35993;52.604;10.078;2022-12-07T00:41:02;19.10;;;9.87;;
50102;SDS011;35993;52.604;10.078;2022-12-07T00:43:29;22.00;;;9.93;;
50102;SDS011;35993;52.604;10.078;2022-12-07T00:45:56;17.97;;;9.93;;
50102;SDS011;35993;52.604;10.078;2022-12-07T00:48:22;26.33;;;10.03;;
50102;SDS011;35993;52.604;10.078;2022-12-07T00:50:48;20.70;;;10.57;;
50102;SDS011;35993;52.604;10.078;2022-12-07T00:53:15;22.47;;;11.13;;
50102;SDS011;35993;52.604;10.078;2022-12-07T00:55:41;24.00;;;10.97;;
50102;SDS011;35993;52.604;10.078;2022-12-07T00:58:07;21.97;;;10.87;;
50102;SDS011;35993;52.604;10.078;2022-12-07T01:00:34;23.07;;;10.97;;
50102;SDS011;35993;52.604;10.078;2022-12-07T01:03:01;21.77;;;11.40;;
50102;SDS011;35993;52.604;10.078;2022-12-07T01:05:27;22.07;;;10.87;;
50102;SDS011;35993;52.604;10.078;2022-12-07T01:07:52;24.93;;;10.77;;
50102;SDS011;35993;52.604;10.078;2022-12-07T01:10:18;25.83;;;11.50;;
50102;SDS011;35993;52.604;10.078;2022-12-07T01:12:44;24.47;;;10.90;;
50102;SDS011;35993;52.604;10.078;2022-12-07T01:15:09;24.73;;;11.80;;
50102;SDS011;35993;52.604;10.078;2022-12-07T01:17:36;24.97;;;11.00;;
50102;SDS011;35993;52.604;10.078;2022-12-07T01:20:02;28.10;;;11.77;;
50102;SDS011;35993;52.604;10.078;2022-12-07T01:22:29;26.47;;;11.60;;
50102;SDS011;35993;52.604;10.078;2022-12-07T01:24:54;24.67;;;11.85;;
50102;SDS011;35993;52.604;10.078;2022-12-07T01:27:20;24.15;;;11.05;;
50102;SDS011;35993;52.604;10.078;2022-12-07T01:29:46;28.17;;;12.48;;
50102;SDS011;35993;52.604;10.078;2022-12-07T01:32:11;27.10;;;12.70;;
50102;SDS011;35993;52.604;10.078;2022-12-07T01:34:37;35.03;;;12.87;;
50102;SDS011;35993;52.604;10.078;2022-12-07T01:37:03;30.15;;;12.88;;
50102;SDS011;35993;52.604;10.078;2022-12-07T01:39:28;25.13;;;12.00;;
50102;SDS011;35993;52.604;10.078;2022-12-07T01:41:54;28.43;;;13.17;;
50102;SDS011;35993;52.604;10.078;2022-12-07T01:51:54;27.45;;;13.13;;
50102;SDS011;35993;52.604;10.078;2022-12-07T01:54:25;30.13;;;12.95;;
50102;SDS011;35993;52.604;10.078;2022-12-07T01:56:52;28.13;;;12.73;;
50102;SDS011;35993;52.604;10.078;2022-12-07T01:59:20;23.35;;;12.18;;
50102;SDS011;35993;52.604;10.078;2022-12-07T02:01:50;27.40;;;12.03;;
50102;SDS011;35993;52.604;10.078;2022-12-07T02:04:16;26.80;;;12.43;;
50102;SDS011;35993;52.604;10.078;2022-12-07T02:06:42;27.23;;;12.40;;
50102;SDS011;35993;52.604;10.078;2022-12-07T02:09:08;24.93;;;12.50;;
50102;SDS011;35993;52.604;10.078;2022-12-07T02:11:34;24.47;;;11.23;;
50102;SDS011;35993;52.604;10.078;2022-12-07T02:14:00;22.03;;;11.40;;
50102;SDS011;35993;52.604;10.078;2022-12-07T02:16:35;25.73;;;12.23;;
50102;SDS011;35993;52.604;10.078;2022-12-07T02:19:11;26.80;;;12.77;;
50102;SDS011;35993;52.604;10.078;2022-12-07T02:28:12;22.37;;;11.60;;
50102;SDS011;35993;52.604;10.078;2022-12-07T02:31:04;23.35;;;11.40;;
50102;SDS011;35993;52.604;10.078;2022-12-07T02:33:36;23.00;;;11.93;;
50102;SDS011;35993;52.604;10.078;2022-12-07T02:36:08;21.83;;;10.98;;
50102;SDS011;35993;52.604;10.078;2022-12-07T02:38:55;22.52;;;11.93;;
50102;SDS011;35993;52.604;10.078;2022-12-07T02:41:28;26.07;;;11.63;;
50102;SDS011;35993;52.604;10.078;2022-12-07T02:44:02;21.98;;;10.52;;
50102;SDS011;35993;52.604;10.078;2022-12-07T02:46:41;24.30;;;11.40;;
50102;SDS011;35993;52.604;10.078;2022-12-07T02:49:09;22.48;;;10.60;;
50102;SDS011;35993;52.604;10.078;2022-12-07T02:51:40;24.87;;;10.53;;
50102;SDS011;35993;52.604;10.078;2022-12-07T02:54:17;22.40;;;10.82;;
50102;SDS011;35993;52.604;10.078;2022-12-07T03:10:28;19.43;;;9.53;;
50102;SDS011;35993;52.604;10.078;2022-12-07T03:13:21;21.30;;;10.10;;
50102;SDS011;35993;52.604;10.078;2022-12-07T03:16:33;17.57;;;8.93;;
50102;SDS011;35993;52.604;10.078;2022-12-07T03:18:53;18.63;;;9.33;;
50102;SDS011;35993;52.604;10.078;2022-12-07T03:21:41;17.37;;;9.33;;
50102;SDS011;35993;52.604;10.078;2022-12-07T03:24:21;18.73;;;8.87;;
50102;SDS011;35993;52.604;10.078;2022-12-07T03:26:58;19.77;;;9.53;;
50102;SDS011;35993;52.604;10.078;2022-12-07T03:29:31;22.43;;;9.30;;
50102;SDS011;35993;52.604;10.078;2022-12-07T03:32:10;17.38;;;9.45;;
50102;SDS011;35993;52.604;10.078;2022-12-07T03:37:35;19.05;;;9.65;;
50102;SDS011;35993;52.604;10.078;2022-12-07T03:42:38;16.73;;;9.02;;
50102;SDS011;35993;52.604;10.078;2022-12-07T03:45:04;16.80;;;9.13;;
50102;SDS011;35993;52.604;10.078;2022-12-07T03:47:48;17.93;;;8.77;;
50102;SDS011;35993;52.604;10.078;2022-12-07T03:51:06;15.83;;;8.43;;
50102;SDS011;35993;52.604;10.078;2022-12-07T03:56:05;17.33;;;8.93;;
50102;SDS011;35993;52.604;10.078;2022-12-07T03:58:33;15.33;;;8.93;;
50102;SDS011;35993;52.604;10.078;2022-12-07T04:00:59;15.93;;;8.43;;
50102;SDS011;35993;52.604;10.078;2022-12-07T04:03:32;14.40;;;7.83;;
50102;SDS011;35993;52.604;10.078;2022-12-07T04:05:57;18.13;;;8.73;;
50102;SDS011;35993;52.604;10.078;2022-12-07T04:08:24;15.27;;;7.85;;
50102;SDS011;35993;52.604;10.078;2022-12-07T04:10:50;14.47;;;7.77;;
50102;SDS011;35993;52.604;10.078;2022-12-07T04:13:15;15.13;;;7.47;;
50102;SDS011;35993;52.604;10.078;2022-12-07T04:15:41;13.60;;;7.77;;
50102;SDS011;35993;52.604;10.078;2022-12-07T04:18:07;13.90;;;8.20;;
50102;SDS011;35993;52.604;10.078;2022-12-07T04:20:32;14.57;;;7.67;;
50102;SDS011;35993;52.604;10.078;2022-12-07T04:22:58;15.80;;;7.80;;
50102;SDS011;35993;52.604;10.078;2022-12-07T04:25:24;15.80;;;8.07;;
50102;SDS011;35993;52.604;10.078;2022-12-07T04:28:05;17.10;;;7.60;;
50102;SDS011;35993;52.604;10.078;2022-12-07T04:30:31;13.87;;;7.60;;
50102;SDS011;35993;52.604;10.078;2022-12-07T04:32:56;17.03;;;7.40;;
50102;SDS011;35993;52.604;10.078;2022-12-07T04:35:22;16.33;;;7.37;;
50102;SDS011;35993;52.604;10.078;2022-12-07T04:37:47;22.33;;;7.63;;
50102;SDS011;35993;52.604;10.078;2022-12-07T04:40:13;17.17;;;7.50;;
50102;SDS011;35993;52.604;10.078;2022-12-07T04:42:39;11.00;;;6.57;;
50102;SDS011;35993;52.604;10.078;2022-12-07T04:45:05;15.97;;;7.57;;
50102;SDS011;35993;52.604;10.078;2022-12-07T04:47:31;12.17;;;6.93;;
50102;SDS011;35993;52.604;10.078;2022-12-07T04:49:57;13.83;;;6.60;;
50102;SDS011;35993;52.604;10.078;2022-12-07T04:52:23;14.33;;;7.20;;
50102;SDS011;35993;52.604;10.078;2022-12-07T04:54:48;15.03;;;7.00;;
50102;SDS011;35993;52.604;10.078;2022-12-07T04:57:14;11.90;;;6.37;;
50102;SDS011;35993;52.604;10.078;2022-12-07T04:59:40;13.27;;;6.83;;
50102;SDS011;35993;52.604;10.078;2022-12-07T05:02:05;17.77;;;7.40;;
50102;SDS011;35993;52.604;10.078;2022-12-07T05:04:31;17.50;;;7.83;;
50102;SDS011;35993;52.604;10.078;2022-12-07T05:07:26;12.20;;;6.20;;
50102;SDS011;35993;52.604;10.078;2022-12-07T05:09:51;14.67;;;6.60;;
50102;SDS011;35993;52.604;10.078;2022-12-07T05:12:25;11.97;;;5.70;;
50102;SDS011;35993;52.604;10.078;2022-12-07T05:14:51;11.90;;;5.77;;
50102;SDS011;35993;52.604;10.078;2022-12-07T05:17:17;12.30;;;6.10;;
50102;SDS011;35993;52.604;10.078;2022-12-07T05:19:42;12.47;;;5.93;;
50102;SDS011;35993;52.604;10.078;2022-12-07T05:22:16;12.07;;;6.40;;
50102;SDS011;35993;52.604;10.078;2022-12-07T05:24:42;14.00;;;5.87;;
50102;SDS011;35993;52.604;10.078;2022-12-07T05:27:07;11.60;;;6.20;;
50102;SDS011;35993;52.604;10.078;2022-12-07T05:29:33;13.10;;;5.80;;
50102;SDS011;35993;52.604;10.078;2022-12-07T05:31:59;12.17;;;5.60;;
50102;SDS011;35993;52.604;10.078;2022-12-07T05:34:24;13.50;;;5.50;;
50102;SDS011;35993;52.604;10.078;2022-12-07T05:36:50;12.10;;;5.50;;
50102;SDS011;35993;52.604;10.078;2022-12-07T05:39:16;10.10;;;5.60;;
50102;SDS011;35993;52.604;10.078;2022-12-07T05:41:42;13.17;;;6.07;;
50102;SDS011;35993;52.604;10.078;2022-12-07T05:44:26;10.50;;;5.27;;
50102;SDS011;35993;52.604;10.078;2022-12-07T05:46:52;9.20;;;5.03;;
50102;SDS011;35993;52.604;10.078;2022-12-07T05:49:17;9.00;;;5.10;;
50102;SDS011;35993;52.604;10.078;2022-12-07T05:51:43;8.82;;;4.43;;
50102;SDS011;35993;52.604;10.078;2022-12-07T05:54:18;9.83;;;3.97;;
50102;SDS011;35993;52.604;10.078;2022-12-07T05:56:43;10.23;;;4.00;;
50102;SDS011;35993;52.604;10.078;2022-12-07T05:59:09;7.10;;;3.92;;
50102;SDS011;35993;52.604;10.078;2022-12-07T06:01:51;6.83;;;3.53;;
50102;SDS011;35993;52.604;10.078;2022-12-07T06:04:18;9.90;;;4.10;;
50102;SDS011;35993;52.604;10.078;2022-12-07T06:06:44;7.10;;;3.43;;
50102;SDS011;35993;52.604;10.078;2022-12-07T06:09:10;5.70;;;3.37;;
50102;SDS011;35993;52.604;10.078;2022-12-07T06:11:38;8.07;;;3.70;;
50102;SDS011;35993;52.604;10.078;2022-12-07T06:14:27;8.27;;;4.73;;
50102;SDS011;35993;52.604;10.078;2022-12-07T06:16:53;7.23;;;4.10;;
50102;SDS011;35993;52.604;10.078;2022-12-07T06:19:20;8.33;;;4.00;;
50102;SDS011;35993;52.604;10.078;2022-12-07T06:21:45;9.93;;;4.10;;
50102;SDS011;35993;52.604;10.078;2022-12-07T06:24:11;9.50;;;4.50;;
50102;SDS011;35993;52.604;10.078;2022-12-07T06:26:38;7.50;;;4.23;;
50102;SDS011;35993;52.604;10.078;2022-12-07T06:29:03;7.77;;;4.37;;
50102;SDS011;35993;52.604;10.078;2022-12-07T06:31:30;10.93;;;4.50;;
50102;SDS011;35993;52.604;10.078;2022-12-07T06:34:00;10.00;;;4.30;;
50102;SDS011;35993;52.604;10.078;2022-12-07T06:36:28;9.10;;;4.60;;
50102;SDS011;35993;52.604;10.078;2022-12-07T06:38:54;8.20;;;4.67;;
50102;SDS011;35993;52.604;10.078;2022-12-07T06:41:20;8.05;;;4.60;;
50102;SDS011;35993;52.604;10.078;2022-12-07T06:43:46;8.73;;;4.80;;
50102;SDS011;35993;52.604;10.078;2022-12-07T06:46:12;8.37;;;4.47;;
50102;SDS011;35993;52.604;10.078;2022-12-07T06:48:39;13.07;;;5.70;;
50102;SDS011;35993;52.604;10.078;2022-12-07T06:51:05;10.47;;;4.63;;
50102;SDS011;35993;52.604;10.078;2022-12-07T06:53:31;10.33;;;4.20;;
50102;SDS011;35993;52.604;10.078;2022-12-07T06:55:57;10.30;;;5.37;;
50102;SDS011;35993;52.604;10.078;2022-12-07T06:58:22;9.50;;;4.60;;
50102;SDS011;35993;52.604;10.078;2022-12-07T07:00:48;11.03;;;4.90;;
50102;SDS011;35993;52.604;10.078;2022-12-07T07:03:15;10.57;;;4.50;;
50102;SDS011;35993;52.604;10.078;2022-12-07T07:05:42;9.97;;;5.17;;
50102;SDS011;35993;52.604;10.078;2022-12-07T07:08:08;11.13;;;4.87;;
50102;SDS011;35993;52.604;10.078;2022-12-07T07:10:34;10.57;;;5.20;;
50102;SDS011;35993;52.604;10.078;2022-12-07T07:13:01;8.67;;;4.87;;
50102;SDS011;35993;52.604;10.078;2022-12-07T07:15:27;11.17;;;5.47;;
50102;SDS011;35993;52.604;10.078;2022-12-07T07:17:52;9.57;;;4.97;;
50102;SDS011;35993;52.604;10.078;2022-12-07T07:20:18;12.30;;;4.63;;
50102;SDS011;35993;52.604;10.078;2022-12-07T07:22:59;11.73;;;4.50;;
50102;SDS011;35993;52.604;10.078;2022-12-07T07:25:43;9.40;;;4.43;;
50102;SDS011;35993;52.604;10.078;2022-12-07T07:28:09;9.43;;;4.57;;
50102;SDS011;35993;52.604;10.078;2022-12-07T07:30:35;9.23;;;4.50;;
50102;SDS011;35993;52.604;10.078;2022-12-07T07:33:01;14.37;;;5.27;;
50102;SDS011;35993;52.604;10.078;2022-12-07T07:35:28;10.13;;;4.70;;
50102;SDS011;35993;52.604;10.078;2022-12-07T07:37:57;6.53;;;4.33;;
50102;SDS011;35993;52.604;10.078;2022-12-07T07:40:23;13.77;;;5.17;;
50102;SDS011;35993;52.604;10.078;2022-12-07T07:42:53;10.77;;;4.63;;
50102;SDS011;35993;52.604;10.078;2022-12-07T07:45:20;9.37;;;4.00;;
50102;SDS011;35993;52.604;10.078;2022-12-07T07:48:05;12.90;;;4.88;;
50102;SDS011;35993;52.604;10.078;2022-12-07T07:50:31;9.67;;;5.00;;
50102;SDS011;35993;52.604;10.078;2022-12-07T07:52:57;9.97;;;5.20;;
50102;SDS011;35993;52.604;10.078;2022-12-07T07:55:23;9.40;;;4.33;;
50102;SDS011;35993;52.604;10.078;2022-12-07T07:57:48;8.02;;;4.22;;
50102;SDS011;35993;52.604;10.078;2022-12-07T08:00:23;10.37;;;4.23;;
50102;SDS011;35993;52.604;10.078;2022-12-07T08:02:49;12.53;;;5.63;;
50102;SDS011;35993;52.604;10.078;2022-12-07T08:05:14;11.03;;;5.00;;
50102;SDS011;35993;52.604;10.078;2022-12-07T08:07:40;6.07;;;3.90;;
50102;SDS011;35993;52.604;10.078;2022-12-07T08:10:06;6.50;;;3.77;;
50102;SDS011;35993;52.604;10.078;2022-12-07T08:12:36;7.40;;;3.77;;
50102;SDS011;35993;52.604;10.078;2022-12-07T08:15:03;9.20;;;3.43;;
50102;SDS011;35993;52.604;10.078;2022-12-07T08:17:29;8.20;;;3.87;;
50102;SDS011;35993;52.604;10.078;2022-12-07T08:19:54;8.87;;;3.97;;
50102;SDS011;35993;52.604;10.078;2022-12-07T08:22:22;9.53;;;4.53;;
50102;SDS011;35993;52.604;10.078;2022-12-07T08:24:48;7.13;;;3.90;;
50102;SDS011;35993;52.604;10.078;2022-12-07T08:27:14;8.73;;;3.73;;
50102;SDS011;35993;52.604;10.078;2022-12-07T08:29:39;10.17;;;4.70;;
50102;SDS011;35993;52.604;10.078;2022-12-07T08:32:22;7.70;;;3.93;;
50102;SDS011;35993;52.604;10.078;2022-12-07T08:35:20;8.17;;;3.83;;
50102;SDS011;35993;52.604;10.078;2022-12-07T08:37:46;8.47;;;3.67;;
50102;SDS011;35993;52.604;10.078;2022-12-07T08:40:12;6.37;;;3.73;;
50102;SDS011;35993;52.604;10.078;2022-12-07T08:42:41;7.77;;;3.60;;
50102;SDS011;35993;52.604;10.078;2022-12-07T08:45:36;6.57;;;3.37;;
50102;SDS011;35993;52.604;10.078;2022-12-07T08:48:08;5.30;;;3.25;;
50102;SDS011;35993;52.604;10.078;2022-12-07T08:50:37;6.37;;;2.97;;
50102;SDS011;35993;52.604;10.078;2022-12-07T08:55:35;6.13;;;3.30;;
50102;SDS011;35993;52.604;10.078;2022-12-07T08:58:01;4.83;;;2.90;;
50102;SDS011;35993;52.604;10.078;2022-12-07T09:00:27;5.70;;;3.03;;
50102;SDS011;35993;52.604;10.078;2022-12-07T09:03:14;5.97;;;3.33;;
50102;SDS011;35993;52.604;10.078;2022-12-07T09:05:40;5.83;;;3.40;;
50102;SDS011;35993;52.604;10.078;2022-12-07T09:08:06;6.63;;;3.60;;
50102;SDS011;35993;52.604;10.078;2022-12-07T09:10:33;4.90;;;3.13;;
50102;SDS011;35993;52.604;10.078;2022-12-07T09:12:59;9.00;;;3.10;;
50102;SDS011;35993;52.604;10.078;2022-12-07T09:15:28;5.87;;;2.97;;
50102;SDS011;35993;52.604;10.078;2022-12-07T09:17:54;8.03;;;3.50;;
50102;SDS011;35993;52.604;10.078;2022-12-07T09:20:20;8.27;;;3.10;;
50102;SDS011;35993;52.604;10.078;2022-12-07T09:22:46;8.27;;;3.80;;
50102;SDS011;35993;52.604;10.078;2022-12-07T09:25:11;6.13;;;3.65;;
50102;SDS011;35993;52.604;10.078;2022-12-07T09:27:37;7.43;;;4.47;;
50102;SDS011;35993;52.604;10.078;2022-12-07T09:30:03;6.87;;;3.73;;
50102;SDS011;35993;52.604;10.078;2022-12-07T09:32:30;8.33;;;4.03;;
50102;SDS011;35993;52.604;10.078;2022-12-07T09:34:56;7.13;;;4.33;;
50102;SDS011;35993;52.604;10.078;2022-12-07T09:37:22;6.97;;;4.17;;
50102;SDS011;35993;52.604;10.078;2022-12-07T09:39:47;8.07;;;4.10;;
50102;SDS011;35993;52.604;10.078;2022-12-07T09:44:51;8.70;;;3.60;;
50102;SDS011;35993;52.604;10.078;2022-12-07T09:47:17;9.57;;;3.97;;
50102;SDS011;35993;52.604;10.078;2022-12-07T09:49:42;11.03;;;5.23;;
50102;SDS011;35993;52.604;10.078;2022-12-07T09:54:39;10.50;;;4.37;;
50102;SDS011;35993;52.604;10.078;2022-12-07T09:57:10;10.68;;;5.72;;
50102;SDS011;35993;52.604;10.078;2022-12-07T09:59:37;8.83;;;4.90;;
50102;SDS011;35993;52.604;10.078;2022-12-07T10:02:21;9.50;;;4.40;;
50102;SDS011;35993;52.604;10.078;2022-12-07T10:04:51;9.30;;;3.20;;
50102;SDS011;35993;52.604;10.078;2022-12-07T10:07:17;9.57;;;3.30;;
50102;SDS011;35993;52.604;10.078;2022-12-07T10:09:43;9.03;;;3.80;;
50102;SDS011;35993;52.604;10.078;2022-12-07T10:12:54;6.15;;;2.72;;
50102;SDS011;35993;52.604;10.078;2022-12-07T10:15:41;7.57;;;3.40;;
50102;SDS011;35993;52.604;10.078;2022-12-07T10:18:19;5.33;;;3.23;;
50102;SDS011;35993;52.604;10.078;2022-12-07T10:21:17;4.77;;;3.10;;
50102;SDS011;35993;52.604;10.078;2022-12-07T10:23:59;6.27;;;2.90;;
50102;SDS011;35993;52.604;10.078;2022-12-07T10:26:32;6.37;;;3.43;;
50102;SDS011;35993;52.604;10.078;2022-12-07T10:29:01;7.18;;;3.42;;
50102;SDS011;35993;52.604;10.078;2022-12-07T10:31:39;6.97;;;3.30;;
50102;SDS011;35993;52.604;10.078;2022-12-07T10:34:12;4.50;;;3.00;;
50102;SDS011;35993;52.604;10.078;2022-12-07T10:36:47;7.95;;;3.20;;
50102;SDS011;35993;52.604;10.078;2022-12-07T10:39:23;6.70;;;2.57;;
50102;SDS011;35993;52.604;10.078;2022-12-07T10:41:58;7.07;;;2.87;;
50102;SDS011;35993;52.604;10.078;2022-12-07T10:44:28;6.63;;;2.97;;
50102;SDS011;35993;52.604;10.078;2022-12-07T10:58:13;6.63;;;2.87;;
50102;SDS011;35993;52.604;10.078;2022-12-07T11:14:55;4.00;;;2.23;;
50102;SDS011;35993;52.604;10.078;2022-12-07T11:18:11;3.63;;;2.33;;
50102;SDS011;35993;52.604;10.078;2022-12-07T11:20:43;6.77;;;2.67;;
50102;SDS011;35993;52.604;10.078;2022-12-07T11:23:18;4.17;;;2.50;;
50102;SDS011;35993;52.604;10.078;2022-12-07T11:25:54;6.27;;;2.70;;
50102;SDS011;35993;52.604;10.078;2022-12-07T11:34:06;4.57;;;2.30;;
50102;SDS011;35993;52.604;10.078;2022-12-07T11:36:43;2.78;;;2.00;;
50102;SDS011;35993;52.604;10.078;2022-12-07T11:41:54;6.47;;;2.30;;
50102;SDS011;35993;52.604;10.078;2022-12-07T11:44:34;3.03;;;1.80;;
50102;SDS011;35993;52.604;10.078;2022-12-07T11:47:13;3.25;;;1.50;;
50102;SDS011;35993;52.604;10.078;2022-12-07T11:50:46;4.07;;;1.70;;
50102;SDS011;35993;52.604;10.078;2022-12-07T11:52:57;2.57;;;1.50;;
50102;SDS011;35993;52.604;10.078;2022-12-07T11:55:29;4.63;;;1.90;;
50102;SDS011;35993;52.604;10.078;2022-12-07T12:06:36;10.75;;;3.28;;
50102;SDS011;35993;52.604;10.078;2022-12-07T12:11:44;4.17;;;2.47;;
50102;SDS011;35993;52.604;10.078;2022-12-07T12:22:53;6.33;;;1.97;;
50102;SDS011;35993;52.604;10.078;2022-12-07T12:25:26;3.75;;;2.20;;
50102;SDS011;35993;52.604;10.078;2022-12-07T12:27:55;6.67;;;2.17;;
50102;SDS011;35993;52.604;10.078;2022-12-07T12:33:01;9.27;;;3.80;;
50102;SDS011;35993;52.604;10.078;2022-12-07T12:38:21;5.90;;;2.40;;
50102;SDS011;35993;52.604;10.078;2022-12-07T12:40:50;6.53;;;1.98;;
50102;SDS011;35993;52.604;10.078;2022-12-07T12:51:53;4.33;;;1.97;;
50102;SDS011;35993;52.604;10.078;2022-12-07T12:54:21;7.43;;;2.43;;
50102;SDS011;35993;52.604;10.078;2022-12-07T13:00:00;8.10;;;2.72;;
50102;SDS011;35993;52.604;10.078;2022-12-07T13:02:33;9.00;;;3.50;;
50102;SDS011;35993;52.604;10.078;2022-12-07T13:12:59;5.37;;;2.20;;
50102;SDS011;35993;52.604;10.078;2022-12-07T13:15:31;4.80;;;2.70;;
50102;SDS011;35993;52.604;10.078;2022-12-07T13:17:59;6.17;;;2.83;;
50102;SDS011;35993;52.604;10.078;2022-12-07T13:20:39;7.32;;;2.88;;
50102;SDS011;35993;52.604;10.078;2022-12-07T13:23:10;4.33;;;2.40;;
50102;SDS011;35993;52.604;10.078;2022-12-07T13:25:36;6.20;;;2.60;;
50102;SDS011;35993;52.604;10.078;2022-12-07T13:30:44;5.37;;;2.20;;
50102;SDS011;35993;52.604;10.078;2022-12-07T13:33:12;8.32;;;3.78;;
50102;SDS011;35993;52.604;10.078;2022-12-07T13:35:40;6.32;;;2.80;;
50102;SDS011;35993;52.604;10.078;2022-12-07T13:38:16;4.90;;;2.67;;
50102;SDS011;35993;52.604;10.078;2022-12-07T13:44:09;6.20;;;2.60;;
50102;SDS011;35993;52.604;10.078;2022-12-07T13:46:51;7.77;;;2.93;;
50102;SDS011;35993;52.604;10.078;2022-12-07T13:49:48;5.67;;;2.60;;
50102;SDS011;35993;52.604;10.078;2022-12-07T13:52:21;5.77;;;2.70;;
50102;SDS011;35993;52.604;10.078;2022-12-07T13:55:11;6.73;;;2.50;;
50102;SDS011;35993;52.604;10.078;2022-12-07T13:57:41;8.10;;;3.15;;
50102;SDS011;35993;52.604;10.078;2022-12-07T14:00:18;7.88;;;2.70;;
50102;SDS011;35993;52.604;10.078;2022-12-07T14:03:03;5.82;;;2.70;;
50102;SDS011;35993;52.604;10.078;2022-12-07T14:06:05;5.68;;;2.60;;
50102;SDS011;35993;52.604;10.078;2022-12-07T14:08:31;9.80;;;3.73;;
50102;SDS011;35993;52.604;10.078;2022-12-07T14:10:57;8.00;;;2.93;;
50102;SDS011;35993;52.604;10.078;2022-12-07T14:18:45;4.30;;;2.30;;
50102;SDS011;35993;52.604;10.078;2022-12-07T14:21:15;6.07;;;2.60;;
50102;SDS011;35993;52.604;10.078;2022-12-07T14:23:44;4.75;;;2.13;;
50102;SDS011;35993;52.604;10.078;2022-12-07T14:26:14;7.43;;;2.40;;
50102;SDS011;35993;52.604;10.078;2022-12-07T14:28:43;9.40;;;2.80;;
50102;SDS011;35993;52.604;10.078;2022-12-07T14:31:13;10.60;;;3.80;;
50102;SDS011;35993;52.604;10.078;2022-12-07T14:33:41;6.53;;;3.42;;
50102;SDS011;35993;52.604;10.078;2022-12-07T14:36:11;5.93;;;2.77;;
50102;SDS011;35993;52.604;10.078;2022-12-07T14:38:39;4.93;;;2.10;;
50102;SDS011;35993;52.604;10.078;2022-12-07T14:41:15;6.82;;;2.30;;
50102;SDS011;35993;52.604;10.078;2022-12-07T14:44:08;7.47;;;2.90;;
50102;SDS011;35993;52.604;10.078;2022-12-07T14:46:36;5.57;;;2.78;;
50102;SDS011;35993;52.604;10.078;2022-12-07T14:49:08;6.03;;;2.13;;
50102;SDS011;35993;52.604;10.078;2022-12-07T14:51:34;1.80;;;1.23;;
50102;SDS011;35993;52.604;10.078;2022-12-07T14:54:04;3.40;;;1.40;;
50102;SDS011;35993;52.604;10.078;2022-12-07T14:56:32;2.17;;;1.03;;
50102;SDS011;35993;52.604;10.078;2022-12-07T14:58:57;2.37;;;1.10;;
50102;SDS011;35993;52.604;10.078;2022-12-07T15:01:23;2.93;;;1.30;;
50102;SDS011;35993;52.604;10.078;2022-12-07T15:03:49;1.90;;;1.00;;
50102;SDS011;35993;52.604;10.078;2022-12-07T15:06:16;3.50;;;1.50;;
50102;SDS011;35993;52.604;10.078;2022-12-07T15:08:43;6.30;;;1.90;;
50102;SDS011;35993;52.604;10.078;2022-12-07T15:11:13;4.10;;;2.27;;
50102;SDS011;35993;52.604;10.078;2022-12-07T15:13:40;3.77;;;1.83;;
50102;SDS011;35993;52.604;10.078;2022-12-07T15:16:25;4.13;;;1.30;;
50102;SDS011;35993;52.604;10.078;2022-12-07T15:18:57;4.60;;;2.40;;
50102;SDS011;35993;52.604;10.078;2022-12-07T15:21:23;3.37;;;1.80;;
50102;SDS011;35993;52.604;10.078;2022-12-07T15:23:49;5.10;;;1.77;;
50102;SDS011;35993;52.604;10.078;2022-12-07T15:26:15;4.63;;;2.97;;
50102;SDS011;35993;52.604;10.078;2022-12-07T15:28:41;4.00;;;2.77;;
50102;SDS011;35993;52.604;10.078;2022-12-07T15:31:12;6.97;;;3.13;;
50102;SDS011;35993;52.604;10.078;2022-12-07T15:33:38;4.32;;;2.58;;
50102;SDS011;35993;52.604;10.078;2022-12-07T15:36:04;2.73;;;2.07;;
50102;SDS011;35993;52.604;10.078;2022-12-07T15:38:30;5.23;;;2.27;;
50102;SDS011;35993;52.604;10.078;2022-12-07T15:40:56;4.40;;;2.20;;
50102;SDS011;35993;52.604;10.078;2022-12-07T15:43:21;7.43;;;2.73;;
50102;SDS011;35993;52.604;10.078;2022-12-07T15:46:06;5.17;;;2.33;;
50102;SDS011;35993;52.604;10.078;2022-12-07T15:48:32;3.77;;;1.90;;
50102;SDS011;35993;52.604;10.078;2022-12-07T15:51:05;3.07;;;1.80;;
50102;SDS011;35993;52.604;10.078;2022-12-07T15:53:31;4.50;;;2.27;;
50102;SDS011;35993;52.604;10.078;2022-12-07T15:55:58;4.20;;;2.53;;
50102;SDS011;35993;52.604;10.078;2022-12-07T15:58:44;5.70;;;2.73;;
50102;SDS011;35993;52.604;10.078;2022-12-07T16:01:11;12.13;;;3.93;;
50102;SDS011;35993;52.604;10.078;2022-12-07T16:03:38;10.07;;;5.00;;
50102;SDS011;35993;52.604;10.078;2022-12-07T16:06:04;8.37;;;3.60;;
50102;SDS011;35993;52.604;10.078;2022-12-07T16:08:30;8.17;;;2.30;;
50102;SDS011;35993;52.604;10.078;2022-12-07T16:10:56;4.27;;;2.10;;
50102;SDS011;35993;52.604;10.078;2022-12-07T16:13:37;4.03;;;2.07;;
50102;SDS011;35993;52.604;10.078;2022-12-07T16:16:05;5.73;;;2.20;;
50102;SDS011;35993;52.604;10.078;2022-12-07T16:18:32;6.03;;;2.42;;
50102;SDS011;35993;52.604;10.078;2022-12-07T16:20:58;4.03;;;2.10;;
50102;SDS011;35993;52.604;10.078;2022-12-07T16:23:24;7.00;;;2.30;;
50102;SDS011;35993;52.604;10.078;2022-12-07T16:25:49;4.60;;;1.60;;
50102;SDS011;35993;52.604;10.078;2022-12-07T16:28:15;3.83;;;1.93;;
50102;SDS011;35993;52.604;10.078;2022-12-07T16:30:41;4.10;;;1.60;;
50102;SDS011;35993;52.604;10.078;2022-12-07T16:33:06;3.90;;;1.60;;
50102;SDS011;35993;52.604;10.078;2022-12-07T16:35:32;2.50;;;1.20;;
50102;SDS011;35993;52.604;10.078;2022-12-07T16:38:21;2.33;;;1.40;;
50102;SDS011;35993;52.604;10.078;2022-12-07T16:40:46;3.70;;;1.60;;
50102;SDS011;35993;52.604;10.078;2022-12-07T16:43:13;3.77;;;1.50;;
50102;SDS011;35993;52.604;10.078;2022-12-07T16:45:39;4.00;;;1.40;;
50102;SDS011;35993;52.604;10.078;2022-12-07T16:48:05;2.80;;;1.10;;
50102;SDS011;35993;52.604;10.078;2022-12-07T16:50:47;3.20;;;1.70;;
50102;SDS011;35993;52.604;10.078;2022-12-07T16:53:13;4.53;;;1.70;;
50102;SDS011;35993;52.604;10.078;2022-12-07T16:55:44;3.40;;;1.60;;
50102;SDS011;35993;52.604;10.078;2022-12-07T16:58:13;2.93;;;2.00;;
50102;SDS011;35993;52.604;10.078;2022-12-07T17:00:41;3.20;;;1.73;;